createdAt,value
2018-03-26T00:00:11.524Z,85.20
2018-03-26T00:01:11.520Z,86.90
2018-03-26T00:02:11.518Z,88.30
2018-03-26T00:03:11.508Z,87.00
2018-03-26T00:04:11.503Z,92.60
2018-03-26T00:05:11.498Z,89.10
2018-03-26T00:06:11.492Z,91.80
2018-03-26T00:07:11.487Z,92.10
2018-03-26T00:08:11.481Z,91.30
2018-03-26T00:09:11.477Z,90.50
2018-03-26T00:10:11.472Z,93.80
2018-03-26T00:11:11.464Z,91.20
2018-03-26T00:12:11.460Z,89.70
2018-03-26T00:13:11.455Z,86.30
2018-03-26T00:14:11.450Z,86.20
2018-03-26T00:15:11.443Z,88.70
2018-03-26T00:16:11.439Z,94.90
2018-03-26T00:17:11.433Z,89.40
2018-03-26T00:18:11.428Z,91.10
2018-03-26T00:19:11.422Z,95.30
2018-03-26T00:20:11.417Z,93.40
2018-03-26T00:21:11.411Z,92.20
2018-03-26T00:22:11.408Z,90.20
2018-03-26T00:23:11.401Z,88.60
2018-03-26T00:24:11.394Z,90.40
2018-03-26T00:25:11.389Z,92.80
2018-03-26T00:26:11.384Z,88.60
2018-03-26T00:27:11.400Z,93.70
2018-03-26T00:28:11.371Z,92.70
2018-03-26T00:29:11.367Z,91.20
2018-03-26T00:30:11.362Z,95.30
2018-03-26T00:31:11.356Z,92.70
2018-03-26T00:32:11.377Z,92.90
2018-03-26T00:33:11.344Z,92.20
2018-03-26T00:34:11.340Z,93.90
2018-03-26T00:35:11.336Z,90.30
2018-03-26T00:36:11.327Z,92.70
2018-03-26T00:37:11.323Z,95.20
2018-03-26T00:38:11.316Z,93.20
2018-03-26T00:39:11.310Z,92.10
2018-03-26T00:40:11.309Z,92.10
2018-03-26T00:41:11.300Z,92.70
2018-03-26T00:42:11.293Z,91.70
2018-03-26T00:43:11.287Z,91.50
2018-03-26T00:44:11.281Z,89.70
2018-03-26T00:45:11.282Z,97.30
2018-03-26T00:46:11.272Z,94.10
2018-03-26T00:47:11.265Z,94.40
2018-03-26T00:48:11.290Z,92.90
2018-03-26T00:49:11.404Z,93.40
2018-03-26T00:50:11.250Z,90.80
2018-03-26T00:51:11.246Z,86.90
2018-03-26T00:52:11.236Z,88.10
2018-03-26T00:53:11.231Z,87.80
2018-03-26T00:54:11.225Z,89.10
2018-03-26T00:55:11.219Z,88.80
2018-03-26T00:56:11.215Z,84.10
2018-03-26T00:57:11.207Z,84.10
2018-03-26T00:58:11.203Z,89.50
2018-03-26T00:59:11.196Z,87.20
2018-03-26T01:00:11.210Z,89.40
2018-03-26T01:01:11.184Z,91.40
2018-03-26T01:02:11.177Z,83.40
2018-03-26T01:03:11.172Z,87.30
2018-03-26T01:04:11.191Z,85.60
2018-03-26T01:05:11.164Z,87.40
2018-03-26T01:06:11.154Z,86.70
2018-03-26T01:07:11.148Z,87.60
2018-03-26T01:08:11.141Z,80.80
2018-03-26T01:09:11.136Z,85.40
2018-03-26T01:10:11.130Z,81.90
2018-03-26T01:11:11.130Z,81.40
2018-03-26T01:12:11.140Z,84.90
2018-03-26T01:13:11.113Z,87.00
2018-03-26T01:14:11.108Z,84.40
2018-03-26T01:15:11.100Z,85.20
2018-03-26T01:16:11.094Z,87.20
2018-03-26T01:17:11.088Z,86.90
2018-03-26T01:18:11.088Z,86.10
2018-03-26T01:19:11.075Z,86.90
2018-03-26T01:20:11.082Z,84.10
2018-03-26T01:21:11.064Z,84.60
2018-03-26T01:22:11.058Z,87.30
2018-03-26T01:23:11.055Z,85.50
2018-03-26T01:24:11.046Z,84.70
2018-03-26T01:25:11.039Z,84.40
2018-03-26T01:26:11.034Z,85.60
2018-03-26T01:27:11.027Z,86.80
2018-03-26T01:28:11.036Z,84.10
2018-03-26T01:29:11.015Z,87.50
2018-03-26T01:30:11.015Z,85.90
2018-03-26T01:31:11.003Z,88.40
2018-03-26T01:32:11.013Z,88.80
2018-03-26T01:33:11.009Z,90.90
2018-03-26T01:34:10.984Z,85.70
2018-03-26T01:35:10.980Z,93.30
2018-03-26T01:36:10.981Z,84.20
2018-03-26T01:37:10.966Z,85.40
2018-03-26T01:38:10.961Z,81.60
2018-03-26T01:39:10.954Z,85.10
2018-03-26T01:40:10.953Z,85.90
2018-03-26T01:41:10.954Z,85.20
2018-03-26T01:42:10.936Z,87.30
2018-03-26T01:43:10.929Z,83.70
2018-03-26T01:44:10.937Z,86.20
2018-03-26T01:45:10.917Z,86.60
2018-03-26T01:46:10.912Z,84.20
2018-03-26T01:47:10.904Z,83.40
2018-03-26T01:48:10.899Z,85.60
2018-03-26T01:49:10.892Z,86.00
2018-03-26T01:50:10.887Z,87.70
2018-03-26T01:51:10.879Z,85.20
2018-03-26T01:52:10.882Z,86.10
2018-03-26T01:53:10.869Z,83.70
2018-03-26T01:54:10.862Z,83.20
2018-03-26T01:55:10.855Z,81.00
2018-03-26T01:56:10.851Z,85.20
2018-03-26T01:57:10.844Z,84.60
2018-03-26T01:58:10.839Z,83.40
2018-03-26T01:59:10.830Z,78.10
2018-03-26T02:00:10.860Z,81.90
2018-03-26T02:01:10.819Z,83.80
2018-03-26T02:02:10.813Z,80.00
2018-03-26T02:03:10.809Z,80.20
2018-03-26T02:04:10.801Z,83.40
2018-03-26T02:05:10.795Z,86.10
2018-03-26T02:06:10.788Z,82.50
2018-03-26T02:07:10.782Z,84.20
2018-03-26T02:08:10.787Z,83.00
2018-03-26T02:09:10.769Z,83.80
2018-03-26T02:10:10.764Z,80.30
2018-03-26T02:11:10.757Z,78.90
2018-03-26T02:12:10.751Z,81.60
2018-03-26T02:13:10.745Z,81.70
2018-03-26T02:14:10.739Z,80.30
2018-03-26T02:15:10.731Z,85.00
2018-03-26T02:16:10.840Z,77.00
2018-03-26T02:17:10.720Z,78.70
2018-03-26T02:18:10.714Z,78.10
2018-03-26T02:19:10.857Z,79.50
2018-03-26T02:20:10.701Z,77.30
2018-03-26T02:21:10.695Z,80.80
2018-03-26T02:22:10.690Z,77.80
2018-03-26T02:23:10.681Z,79.90
2018-03-26T02:24:10.751Z,82.30
2018-03-26T02:25:10.670Z,79.70
2018-03-26T02:26:10.664Z,78.30
2018-03-26T02:27:10.657Z,80.70
2018-03-26T02:28:10.651Z,82.80
2018-03-26T02:29:10.645Z,78.10
2018-03-26T02:30:10.646Z,83.10
2018-03-26T02:31:10.635Z,80.90
2018-03-26T02:32:10.840Z,80.70
2018-03-26T02:33:10.620Z,79.10
2018-03-26T02:34:10.613Z,77.30
2018-03-26T02:35:10.607Z,80.10
2018-03-26T02:36:10.606Z,82.20
2018-03-26T02:37:10.595Z,80.00
2018-03-26T02:38:10.589Z,78.00
2018-03-26T02:39:10.580Z,79.30
2018-03-26T02:40:10.593Z,80.50
2018-03-26T02:41:10.573Z,81.70
2018-03-26T02:42:10.562Z,75.00
2018-03-26T02:43:10.564Z,81.90
2018-03-26T02:44:10.549Z,76.90
2018-03-26T02:45:10.544Z,76.60
2018-03-26T02:46:10.537Z,76.40
2018-03-26T02:47:10.531Z,77.30
2018-03-26T02:48:10.793Z,78.10
2018-03-26T02:49:10.518Z,79.00
2018-03-26T02:50:10.512Z,84.30
2018-03-26T02:51:10.505Z,79.40
2018-03-26T02:52:10.502Z,80.30
2018-03-26T02:53:10.491Z,77.50
2018-03-26T02:54:10.485Z,76.90
2018-03-26T02:55:10.479Z,77.20
2018-03-26T02:56:10.490Z,77.90
2018-03-26T02:57:10.466Z,80.70
2018-03-26T02:58:10.460Z,78.10
2018-03-26T02:59:10.455Z,81.70
2018-03-26T03:00:10.449Z,86.30
2018-03-26T03:01:10.440Z,86.50
2018-03-26T03:02:10.435Z,92.60
2018-03-26T03:03:10.427Z,84.60
2018-03-26T03:04:10.800Z,84.60
2018-03-26T03:05:10.416Z,89.10
2018-03-26T03:06:10.407Z,83.40
2018-03-26T03:07:10.401Z,90.40
2018-03-26T03:08:10.395Z,92.20
2018-03-26T03:09:10.388Z,92.60
2018-03-26T03:10:10.381Z,86.40
2018-03-26T03:11:10.373Z,92.80
2018-03-26T03:12:10.394Z,91.80
2018-03-26T03:13:10.361Z,88.90
2018-03-26T03:14:10.355Z,90.30
2018-03-26T03:15:10.353Z,90.50
2018-03-26T03:16:10.341Z,95.00
2018-03-26T03:17:10.335Z,87.30
2018-03-26T03:18:10.329Z,91.80
2018-03-26T03:19:10.321Z,87.10
2018-03-26T03:20:10.550Z,89.30
2018-03-26T03:21:10.308Z,93.80
2018-03-26T03:22:10.302Z,89.80
2018-03-26T03:23:10.295Z,93.30
2018-03-26T03:24:10.288Z,88.50
2018-03-26T03:25:10.283Z,91.50
2018-03-26T03:26:10.277Z,90.80
2018-03-26T03:27:10.274Z,94.80
2018-03-26T03:28:10.282Z,96.80
2018-03-26T03:29:10.257Z,93.40
2018-03-26T03:30:10.251Z,92.90
2018-03-26T03:31:10.250Z,90.50
2018-03-26T03:32:10.295Z,89.60
2018-03-26T03:33:10.230Z,94.60
2018-03-26T03:34:10.225Z,94.40
2018-03-26T03:35:10.216Z,98.30
2018-03-26T03:36:10.473Z,97.20
2018-03-26T03:37:10.204Z,94.50
2018-03-26T03:38:10.197Z,94.20
2018-03-26T03:39:10.191Z,95.70
2018-03-26T03:40:10.184Z,96.80
2018-03-26T03:41:10.177Z,88.10
2018-03-26T03:42:10.171Z,91.00
2018-03-26T03:43:10.164Z,90.40
2018-03-26T03:44:10.181Z,90.80
2018-03-26T03:45:10.151Z,90.30
2018-03-26T03:46:10.151Z,90.30
2018-03-26T03:47:10.153Z,91.10
2018-03-26T03:48:10.130Z,95.70
2018-03-26T03:49:12.526Z,99.40
2018-03-26T03:50:10.117Z,94.60
2018-03-26T03:51:10.110Z,99.00
2018-03-26T03:52:10.473Z,97.80
2018-03-26T03:53:10.097Z,98.50
2018-03-26T03:54:10.097Z,91.30
2018-03-26T03:55:10.097Z,89.30
2018-03-26T03:56:10.077Z,98.70
2018-03-26T03:57:10.069Z,98.60
2018-03-26T03:58:10.063Z,96.30
2018-03-26T03:59:10.055Z,100.30
2018-03-26T04:00:10.094Z,97.70
2018-03-26T04:01:10.042Z,96.60
2018-03-26T04:02:10.036Z,96.60
2018-03-26T04:03:10.038Z,98.10
2018-03-26T04:04:10.021Z,95.60
2018-03-26T04:05:10.015Z,93.90
2018-03-26T04:06:10.009Z,97.20
2018-03-26T04:07:10.000Z,99.90
2018-03-26T04:08:10.465Z,95.10
2018-03-26T04:09:09.989Z,96.80
2018-03-26T04:10:09.982Z,93.30
2018-03-26T04:11:09.974Z,97.90
2018-03-26T04:12:09.968Z,98.50
2018-03-26T04:13:09.961Z,96.30
2018-03-26T04:14:09.954Z,92.00
2018-03-26T04:15:09.946Z,96.00
2018-03-26T04:16:09.953Z,91.30
2018-03-26T04:17:09.932Z,95.80
2018-03-26T04:18:09.926Z,91.00
2018-03-26T04:19:09.918Z,90.80
2018-03-26T04:20:09.922Z,89.70
2018-03-26T04:21:09.905Z,90.70
2018-03-26T04:22:09.898Z,86.70
2018-03-26T04:23:09.890Z,90.50
2018-03-26T04:24:10.124Z,86.90
2018-03-26T04:25:09.877Z,88.10
2018-03-26T04:26:09.873Z,87.00
2018-03-26T04:27:09.863Z,84.80
2018-03-26T04:28:09.858Z,83.40
2018-03-26T04:29:09.855Z,80.50
2018-03-26T04:30:09.851Z,81.50
2018-03-26T04:31:09.839Z,84.20
2018-03-26T04:32:10.122Z,80.60
2018-03-26T04:33:09.825Z,79.30
2018-03-26T04:34:09.818Z,77.30
2018-03-26T04:35:09.809Z,77.80
2018-03-26T04:36:09.803Z,77.90
2018-03-26T04:37:09.797Z,76.60
2018-03-26T04:38:09.791Z,76.80
2018-03-26T04:39:09.781Z,76.00
2018-03-26T04:40:09.786Z,78.30
2018-03-26T04:41:09.769Z,81.30
2018-03-26T04:42:09.763Z,81.90
2018-03-26T04:43:09.755Z,79.70
2018-03-26T04:44:09.747Z,78.60
2018-03-26T04:45:09.742Z,74.90
2018-03-26T04:46:09.735Z,79.20
2018-03-26T04:47:09.728Z,79.10
2018-03-26T04:48:09.721Z,77.90
2018-03-26T04:49:09.715Z,81.40
2018-03-26T04:50:09.709Z,77.80
2018-03-26T04:51:09.700Z,76.90
2018-03-26T04:52:09.693Z,76.80
2018-03-26T04:53:09.687Z,72.80
2018-03-26T04:54:09.685Z,72.30
2018-03-26T04:55:09.923Z,74.50
2018-03-26T04:56:09.666Z,71.00
2018-03-26T04:57:09.659Z,66.90
2018-03-26T04:58:09.653Z,71.00
2018-03-26T04:59:09.645Z,70.10
2018-03-26T05:00:09.642Z,69.80
2018-03-26T05:01:09.632Z,68.90
2018-03-26T05:02:09.629Z,64.90
2018-03-26T05:03:09.617Z,68.70
2018-03-26T05:04:09.612Z,66.60
2018-03-26T05:05:09.605Z,68.80
2018-03-26T05:06:09.598Z,62.50
2018-03-26T05:07:09.590Z,64.90
2018-03-26T05:08:09.588Z,68.20
2018-03-26T05:09:09.578Z,69.40
2018-03-26T05:10:09.571Z,61.50
2018-03-26T05:11:09.564Z,65.00
2018-03-26T05:12:09.567Z,66.30
2018-03-26T05:13:09.555Z,64.00
2018-03-26T05:14:09.550Z,63.90
2018-03-26T05:15:09.536Z,68.20
2018-03-26T05:16:09.535Z,63.10
2018-03-26T05:17:09.523Z,64.60
2018-03-26T05:18:09.517Z,62.50
2018-03-26T05:19:09.617Z,66.70
2018-03-26T05:20:09.503Z,67.60
2018-03-26T05:21:09.496Z,66.90
2018-03-26T05:22:09.490Z,64.70
2018-03-26T05:23:09.482Z,60.60
2018-03-26T05:24:09.476Z,60.80
2018-03-26T05:25:09.468Z,61.90
2018-03-26T05:26:09.462Z,65.40
2018-03-26T05:27:09.454Z,58.40
2018-03-26T05:28:09.448Z,60.00
2018-03-26T05:29:09.458Z,63.00
2018-03-26T05:30:09.437Z,56.20
2018-03-26T05:31:09.437Z,63.00
2018-03-26T05:32:09.423Z,60.40
2018-03-26T05:33:09.414Z,58.70
2018-03-26T05:34:09.410Z,56.00
2018-03-26T05:35:09.400Z,55.60
2018-03-26T05:36:09.392Z,55.30
2018-03-26T05:37:09.435Z,54.50
2018-03-26T05:38:09.379Z,58.20
2018-03-26T05:39:09.371Z,56.70
2018-03-26T05:40:09.365Z,55.50
2018-03-26T05:41:09.360Z,55.30
2018-03-26T05:42:09.353Z,53.90
2018-03-26T05:43:51.753Z,52.80
2018-03-26T06:04:48.327Z,48.60
2018-03-26T06:13:44.909Z,43.10
2018-03-26T06:15:27.312Z,42.00
2018-03-26T06:16:27.314Z,42.00
2018-03-26T06:21:36.255Z,41.60
2018-03-26T06:23:23.659Z,43.40
2018-03-26T06:24:23.650Z,44.90
2018-03-26T06:28:56.779Z,44.50
2018-03-26T06:31:04.227Z,45.50
2018-03-26T06:36:13.170Z,47.10
2018-03-26T06:38:45.663Z,47.80
2018-03-26T06:39:45.656Z,46.60
2018-03-26T06:40:45.649Z,46.90
2018-03-26T06:42:45.635Z,42.90
2018-03-26T06:49:27.080Z,40.90
2018-03-26T06:51:09.482Z,39.10
2018-03-26T06:53:02.105Z,40.00
2018-03-26T07:01:31.628Z,41.70
2018-03-26T07:03:19.040Z,42.40
2018-03-26T07:05:41.514Z,42.60
2018-03-26T07:06:41.554Z,43.30
2018-03-26T07:07:41.498Z,41.70
2018-03-26T07:09:43.940Z,44.60
2018-03-26T07:10:43.934Z,45.30
2018-03-26T07:11:43.927Z,44.30
2018-03-26T07:12:43.922Z,46.30
2018-03-26T07:13:43.914Z,43.70
2018-03-26T07:14:43.907Z,43.10
2018-03-26T07:15:43.900Z,42.10
2018-03-26T07:16:43.895Z,42.00
2018-03-26T07:17:43.888Z,44.90
2018-03-26T07:18:43.882Z,44.90
2018-03-26T07:19:43.876Z,46.60
2018-03-26T07:20:43.870Z,44.00
2018-03-26T07:21:43.895Z,47.20
2018-03-26T07:22:43.857Z,45.40
2018-03-26T07:23:43.877Z,46.80
2018-03-26T07:24:43.849Z,43.60
2018-03-26T07:25:43.837Z,44.40
2018-03-26T07:26:43.836Z,42.20
2018-03-26T07:27:43.832Z,42.60
2018-03-26T07:28:43.822Z,45.80
2018-03-26T07:29:43.822Z,42.60
2018-03-26T07:30:43.819Z,43.10
2018-03-26T07:31:43.808Z,39.60
2018-03-26T07:32:43.804Z,45.10
2018-03-26T07:33:43.798Z,46.30
2018-03-26T07:34:43.796Z,42.10
2018-03-26T07:35:43.791Z,42.80
2018-03-26T07:36:43.788Z,40.50
2018-03-26T07:37:43.783Z,42.90
2018-03-26T07:38:43.780Z,36.20
2018-03-26T07:39:46.400Z,39.10
2018-03-26T07:43:54.547Z,35.60
2018-03-26T07:44:54.558Z,36.10
2018-03-26T07:45:54.541Z,36.30
2018-03-26T07:49:20.242Z,36.40
2018-03-26T07:51:02.638Z,35.50
2018-03-26T07:52:45.048Z,32.40
2018-03-26T07:53:45.052Z,34.40
2018-03-26T07:54:48.270Z,34.00
2018-03-26T07:55:45.039Z,31.90
2018-03-26T07:56:45.038Z,31.70
2018-03-26T07:59:54.948Z,30.70
2018-03-26T08:00:54.952Z,29.60
2018-03-26T08:03:07.947Z,29.30
2018-03-26T08:04:07.946Z,27.80
2018-03-26T08:05:07.944Z,29.50
2018-03-26T08:08:33.637Z,32.00
2018-03-26T08:14:02.643Z,31.90
2018-03-26T08:15:02.645Z,30.00
2018-03-26T08:16:02.639Z,32.20
2018-03-26T08:17:02.743Z,30.30
2018-03-26T08:18:02.638Z,30.80
2018-03-26T08:19:02.632Z,29.40
2018-03-26T08:20:02.632Z,30.50
2018-03-26T08:21:02.631Z,33.60
2018-03-26T08:22:02.625Z,32.20
2018-03-26T08:23:02.624Z,32.00
2018-03-26T08:24:02.616Z,27.70
2018-03-26T08:25:02.613Z,26.20
2018-03-26T08:26:02.607Z,26.90
2018-03-26T08:27:02.605Z,26.90
2018-03-26T08:28:02.619Z,26.40
2018-03-26T08:29:02.597Z,27.90
2018-03-26T08:30:02.594Z,29.10
2018-03-26T08:31:02.603Z,27.30
2018-03-26T08:32:02.586Z,29.70
2018-03-26T08:33:02.582Z,30.00
2018-03-26T08:34:02.576Z,26.50
2018-03-26T08:35:02.573Z,29.80
2018-03-26T08:36:02.569Z,27.40
2018-03-26T08:37:02.564Z,28.30
2018-03-26T08:38:02.659Z,27.60
2018-03-26T08:39:02.558Z,31.20
2018-03-26T08:40:02.550Z,29.10
2018-03-26T08:41:02.545Z,27.60
2018-03-26T08:42:02.541Z,30.30
2018-03-26T08:43:02.536Z,31.00
2018-03-26T08:44:02.534Z,30.40
2018-03-26T08:45:02.528Z,29.80
2018-03-26T08:46:02.521Z,30.40
2018-03-26T08:47:02.521Z,30.60
2018-03-26T08:48:02.513Z,29.90
2018-03-26T08:49:02.516Z,30.30
2018-03-26T08:50:02.619Z,29.80
2018-03-26T08:51:02.495Z,28.60
2018-03-26T08:52:02.490Z,29.30
2018-03-26T08:53:02.487Z,29.60
2018-03-26T08:54:02.480Z,28.60
2018-03-26T08:55:02.480Z,30.00
2018-03-26T08:56:02.484Z,25.50
2018-03-26T08:57:02.464Z,25.20
2018-03-26T08:58:02.457Z,23.70
2018-03-26T08:59:02.453Z,23.70
2018-03-26T09:00:02.457Z,22.40
2018-03-26T09:01:02.449Z,21.40
2018-03-26T09:02:02.436Z,22.50
2018-03-26T09:03:02.430Z,21.50
2018-03-26T09:04:02.430Z,21.10
2018-03-26T09:05:02.437Z,21.60
2018-03-26T09:06:02.413Z,20.30
2018-03-26T09:07:02.408Z,20.80
2018-03-26T09:08:02.404Z,19.80
2018-03-26T09:09:02.396Z,18.60
2018-03-26T09:10:02.392Z,18.40
2018-03-26T09:11:02.386Z,18.80
2018-03-26T09:12:02.394Z,18.50
2018-03-26T09:13:02.376Z,18.60
2018-03-26T09:14:02.475Z,18.80
2018-03-26T09:15:02.364Z,18.60
2018-03-26T09:16:02.359Z,18.50
2018-03-26T09:17:02.354Z,18.30
2018-03-26T09:18:02.349Z,18.40
2018-03-26T09:19:02.341Z,18.10
2018-03-26T09:20:02.587Z,18.20
2018-03-26T09:21:02.333Z,17.50
2018-03-26T09:22:02.326Z,17.60
2018-03-26T09:23:02.319Z,17.60
2018-03-26T09:24:02.320Z,17.40
2018-03-26T09:25:02.308Z,17.00
2018-03-26T09:26:02.335Z,17.20
2018-03-26T09:27:02.298Z,16.10
2018-03-26T09:28:02.292Z,16.60
2018-03-26T09:29:02.287Z,16.70
2018-03-26T09:30:02.299Z,14.00
2018-03-26T09:31:02.278Z,13.40
2018-03-26T09:32:02.272Z,13.80
2018-03-26T09:33:02.265Z,14.30
2018-03-26T09:34:02.259Z,14.20
2018-03-26T09:35:02.254Z,14.60
2018-03-26T09:36:02.249Z,14.00
2018-03-26T09:37:02.244Z,13.90
2018-03-26T09:38:02.237Z,13.30
2018-03-26T09:39:02.232Z,14.20
2018-03-26T09:40:02.227Z,14.70
2018-03-26T09:41:02.222Z,14.10
2018-03-26T09:42:02.216Z,14.70
2018-03-26T09:43:02.210Z,15.30
2018-03-26T09:44:02.204Z,14.80
2018-03-26T09:45:02.206Z,14.20
2018-03-26T09:46:02.195Z,14.30
2018-03-26T09:47:02.213Z,16.10
2018-03-26T09:48:02.185Z,14.10
2018-03-26T09:49:02.190Z,13.50
2018-03-26T09:50:02.524Z,14.30
2018-03-26T09:51:02.167Z,14.50
2018-03-26T09:52:02.166Z,13.70
2018-03-26T09:53:02.157Z,14.30
2018-03-26T09:54:02.155Z,14.20
2018-03-26T09:55:02.147Z,14.10
2018-03-26T09:56:02.481Z,14.60
2018-03-26T09:57:02.136Z,14.70
2018-03-26T09:58:02.137Z,13.90
2018-03-26T09:59:02.128Z,14.00
2018-03-26T10:00:02.121Z,13.80
2018-03-26T10:01:02.128Z,13.20
2018-03-26T10:02:02.192Z,13.70
2018-03-26T10:03:02.104Z,13.30
2018-03-26T10:04:02.099Z,13.00
2018-03-26T10:05:02.096Z,13.30
2018-03-26T10:06:02.090Z,14.70
2018-03-26T10:07:02.085Z,14.20
2018-03-26T10:08:02.079Z,14.60
2018-03-26T10:09:02.076Z,14.60
2018-03-26T10:10:02.069Z,13.90
2018-03-26T10:11:02.064Z,14.40
2018-03-26T10:12:02.059Z,11.90
2018-03-26T10:13:02.054Z,12.20
2018-03-26T10:14:02.049Z,11.60
2018-03-26T10:15:02.044Z,12.30
2018-03-26T10:16:02.040Z,12.10
2018-03-26T10:17:02.035Z,12.40
2018-03-26T10:18:02.029Z,11.60
2018-03-26T10:19:02.025Z,12.30
2018-03-26T10:20:02.020Z,12.30
2018-03-26T10:21:02.015Z,11.20
2018-03-26T10:22:02.012Z,11.70
2018-03-26T10:23:02.007Z,11.90
2018-03-26T10:24:02.004Z,12.60
2018-03-26T10:25:01.995Z,11.80
2018-03-26T10:26:01.991Z,12.20
2018-03-26T10:27:01.988Z,11.90
2018-03-26T10:28:01.981Z,10.80
2018-03-26T10:29:01.977Z,11.10
2018-03-26T10:30:01.985Z,11.00
2018-03-26T10:31:01.969Z,10.90
2018-03-26T10:32:02.212Z,9.60
2018-03-26T10:33:01.964Z,11.50
2018-03-26T10:34:01.952Z,11.00
2018-03-26T10:35:01.948Z,11.20
2018-03-26T10:36:01.944Z,11.40
2018-03-26T10:37:01.940Z,11.50
2018-03-26T10:38:02.234Z,12.40
2018-03-26T10:39:01.929Z,12.20
2018-03-26T10:40:01.925Z,11.60
2018-03-26T10:41:01.926Z,11.30
2018-03-26T10:42:01.919Z,11.20
2018-03-26T10:43:01.912Z,10.60
2018-03-26T10:44:02.157Z,10.70
2018-03-26T10:45:01.904Z,10.50
2018-03-26T10:46:01.902Z,12.10
2018-03-26T10:47:01.893Z,10.30
2018-03-26T10:48:01.889Z,11.80
2018-03-26T10:49:01.886Z,10.60
2018-03-26T10:50:02.181Z,10.90
2018-03-26T10:51:01.891Z,11.00
2018-03-26T10:52:01.882Z,11.80
2018-03-26T10:53:01.869Z,10.90
2018-03-26T10:54:01.863Z,10.40
2018-03-26T10:55:01.859Z,10.10
2018-03-26T10:56:01.855Z,10.30
2018-03-26T10:57:01.852Z,9.40
2018-03-26T10:58:01.845Z,9.30
2018-03-26T10:59:01.842Z,8.80
2018-03-26T11:00:01.838Z,9.10
2018-03-26T11:01:01.834Z,11.40
2018-03-26T11:02:01.979Z,10.60
2018-03-26T11:03:01.825Z,10.90
2018-03-26T11:04:01.825Z,10.20
2018-03-26T11:05:01.817Z,11.80
2018-03-26T11:06:01.812Z,10.40
2018-03-26T11:07:01.807Z,9.50
2018-03-26T11:08:01.804Z,11.40
2018-03-26T11:09:01.805Z,11.60
2018-03-26T11:10:01.795Z,9.90
2018-03-26T11:11:01.799Z,10.20
2018-03-26T11:12:01.789Z,10.30
2018-03-26T11:13:01.801Z,10.80
2018-03-26T11:14:01.778Z,11.20
2018-03-26T11:15:01.779Z,12.20
2018-03-26T11:16:01.774Z,9.80
2018-03-26T11:17:01.768Z,11.10
2018-03-26T11:18:01.798Z,11.30
2018-03-26T11:19:01.759Z,12.30
2018-03-26T11:20:01.756Z,10.70
2018-03-26T11:21:01.757Z,11.10
2018-03-26T11:22:01.747Z,10.40
2018-03-26T11:23:01.745Z,10.70
2018-03-26T11:24:01.741Z,11.50
2018-03-26T11:25:01.737Z,10.80
2018-03-26T11:26:01.733Z,10.30
2018-03-26T11:27:01.730Z,10.20
2018-03-26T11:28:01.741Z,10.70
2018-03-26T11:29:01.722Z,10.00
2018-03-26T11:30:01.719Z,11.70
2018-03-26T11:31:01.716Z,10.60
2018-03-26T11:32:01.713Z,10.10
2018-03-26T11:33:01.709Z,10.40
2018-03-26T11:34:01.706Z,11.60
2018-03-26T11:35:01.702Z,11.50
2018-03-26T11:36:01.699Z,9.80
2018-03-26T11:37:01.697Z,12.20
2018-03-26T11:38:01.792Z,11.60
2018-03-26T11:39:01.690Z,9.70
2018-03-26T11:40:01.692Z,11.90
2018-03-26T11:41:01.683Z,9.60
2018-03-26T11:42:01.680Z,10.20
2018-03-26T11:43:01.691Z,8.60
2018-03-26T11:44:01.675Z,9.70
2018-03-26T11:45:01.672Z,9.20
2018-03-26T11:46:01.670Z,9.70
2018-03-26T11:47:01.666Z,10.30
2018-03-26T11:48:01.666Z,10.20
2018-03-26T11:49:01.668Z,9.80
2018-03-26T11:50:01.668Z,8.50
2018-03-26T11:51:01.669Z,9.40
2018-03-26T11:52:01.657Z,11.50
2018-03-26T11:53:01.649Z,9.40
2018-03-26T11:54:01.645Z,9.20
2018-03-26T11:55:01.643Z,10.80
2018-03-26T11:56:01.890Z,11.40
2018-03-26T11:57:01.637Z,9.40
2018-03-26T11:58:01.634Z,9.40
2018-03-26T11:59:01.632Z,11.80
2018-03-26T12:00:01.630Z,11.60
2018-03-26T12:01:01.627Z,9.10
2018-03-26T12:02:01.923Z,10.30
2018-03-26T12:03:01.623Z,10.30
2018-03-26T12:04:01.621Z,9.50
2018-03-26T12:05:01.622Z,12.80
2018-03-26T12:06:01.623Z,10.50
2018-03-26T12:07:01.624Z,10.70
2018-03-26T12:08:01.858Z,9.60
2018-03-26T12:09:01.606Z,9.70
2018-03-26T12:10:01.603Z,9.20
2018-03-26T12:11:01.601Z,9.00
2018-03-26T12:12:01.600Z,8.40
2018-03-26T12:13:01.609Z,9.00
2018-03-26T12:14:01.901Z,7.90
2018-03-26T12:15:01.593Z,9.30
2018-03-26T12:16:01.590Z,8.40
2018-03-26T12:17:01.588Z,10.20
2018-03-26T12:18:01.586Z,8.90
2018-03-26T12:19:01.588Z,8.60
2018-03-26T12:20:01.583Z,10.00
2018-03-26T12:21:01.615Z,9.00
2018-03-26T12:22:01.578Z,8.70
2018-03-26T12:23:01.576Z,11.10
2018-03-26T12:24:02.790Z,8.60
2018-03-26T12:25:01.573Z,9.60
2018-03-26T12:26:01.572Z,9.40
2018-03-26T12:27:01.574Z,9.20
2018-03-26T12:28:01.571Z,9.20
2018-03-26T12:29:01.568Z,9.50
2018-03-26T12:30:01.568Z,10.00
2018-03-26T12:31:01.570Z,8.50
2018-03-26T12:32:01.567Z,9.80
2018-03-26T12:33:02.190Z,8.70
2018-03-26T12:34:02.989Z,8.50
2018-03-26T12:35:01.568Z,7.80
2018-03-26T12:36:01.570Z,8.20
2018-03-26T12:37:01.571Z,7.90
2018-03-26T12:38:01.592Z,8.90
2018-03-26T12:39:01.573Z,8.60
2018-03-26T12:40:01.576Z,8.50
2018-03-26T12:41:01.579Z,7.90
2018-03-26T12:42:01.580Z,8.50
2018-03-26T12:43:01.585Z,9.70
2018-03-26T12:44:01.586Z,8.40
2018-03-26T12:45:01.589Z,8.60
2018-03-26T12:46:01.591Z,7.80
2018-03-26T12:47:01.595Z,8.30
2018-03-26T12:48:01.606Z,8.90
2018-03-26T12:49:01.602Z,7.80
2018-03-26T12:50:01.608Z,7.70
2018-03-26T12:51:01.718Z,10.20
2018-03-26T12:52:01.615Z,9.60
2018-03-26T12:53:01.622Z,6.30
2018-03-26T12:54:01.625Z,6.00
2018-03-26T12:55:01.629Z,6.90
2018-03-26T12:56:01.636Z,5.60
2018-03-26T12:57:01.641Z,7.40
2018-03-26T12:58:01.645Z,6.30
2018-03-26T12:59:01.651Z,7.20
2018-03-26T13:00:01.684Z,6.60
2018-03-26T13:01:01.664Z,8.20
2018-03-26T13:02:01.683Z,7.30
2018-03-26T13:03:01.683Z,6.50
2018-03-26T13:04:01.690Z,6.30
2018-03-26T13:05:01.690Z,6.10
2018-03-26T13:06:01.692Z,5.90
2018-03-26T13:07:03.162Z,6.10
2018-03-26T13:08:01.704Z,5.90
2018-03-26T13:09:01.711Z,8.30
2018-03-26T13:10:01.716Z,5.90
2018-03-26T13:11:01.733Z,6.20
2018-03-26T13:12:01.729Z,6.50
2018-03-26T13:13:02.086Z,6.20
2018-03-26T13:14:01.761Z,5.60
2018-03-26T13:15:01.761Z,4.70
2018-03-26T13:16:01.760Z,6.70
2018-03-26T13:17:01.762Z,6.10
2018-03-26T13:18:01.773Z,5.60
2018-03-26T13:19:02.024Z,5.90
2018-03-26T13:20:01.781Z,6.10
2018-03-26T13:21:01.788Z,7.30
2018-03-26T13:22:01.797Z,7.50
2018-03-26T13:23:01.804Z,6.90
2018-03-26T13:24:01.811Z,6.80
2018-03-26T13:25:01.818Z,8.10
2018-03-26T13:26:01.822Z,7.30
2018-03-26T13:27:01.833Z,7.50
2018-03-26T13:28:01.839Z,7.80
2018-03-26T13:29:01.902Z,7.80
2018-03-26T13:30:01.851Z,7.10
2018-03-26T13:31:01.859Z,6.70
2018-03-26T13:32:01.877Z,7.10
2018-03-26T13:33:01.876Z,7.00
2018-03-26T13:34:01.878Z,5.60
2018-03-26T13:35:01.887Z,5.20
2018-03-26T13:36:01.897Z,5.20
2018-03-26T13:37:01.900Z,5.30
2018-03-26T13:38:01.907Z,6.50
2018-03-26T13:39:01.914Z,6.60
2018-03-26T13:40:01.921Z,6.40
2018-03-26T13:41:01.928Z,7.30
2018-03-26T13:42:01.939Z,7.00
2018-03-26T13:43:01.943Z,7.00
2018-03-26T13:44:01.952Z,6.90
2018-03-26T13:45:01.958Z,7.90
2018-03-26T13:46:01.980Z,7.00
2018-03-26T13:47:01.973Z,6.80
2018-03-26T13:48:01.983Z,7.30
2018-03-26T13:49:01.990Z,7.20
2018-03-26T13:50:02.010Z,8.00
2018-03-26T13:51:02.003Z,7.50
2018-03-26T13:52:02.011Z,8.70
2018-03-26T13:53:02.018Z,7.90
2018-03-26T13:54:02.028Z,7.90
2018-03-26T13:55:02.034Z,9.00
2018-03-26T13:56:02.040Z,8.00
2018-03-26T13:57:02.047Z,8.40
2018-03-26T13:58:02.057Z,6.90
2018-03-26T13:59:02.060Z,7.70
2018-03-26T14:00:02.067Z,7.10
2018-03-26T14:01:02.074Z,7.50
2018-03-26T14:02:02.085Z,7.20
2018-03-26T14:03:02.086Z,8.20
2018-03-26T14:04:02.093Z,7.50
2018-03-26T14:05:02.102Z,6.90
2018-03-26T14:06:02.104Z,6.70
2018-03-26T14:07:02.112Z,6.60
2018-03-26T14:08:02.119Z,7.20
2018-03-26T14:09:02.125Z,6.90
2018-03-26T14:10:02.131Z,7.30
2018-03-26T14:11:02.137Z,6.80
2018-03-26T14:12:02.143Z,6.70
2018-03-26T14:13:02.151Z,7.70
2018-03-26T14:14:02.158Z,7.70
2018-03-26T14:15:02.163Z,7.00
2018-03-26T14:16:02.169Z,5.60
2018-03-26T14:17:02.175Z,5.80
2018-03-26T14:18:02.179Z,6.60